Time;durP1;ratioP1;P1;durP2;ratioP2;P2;SDS_P1;SDS_P2;PMS_P1;PMS_P2;Temp;Humidity;BMP_temperature;BMP_pressure;BME280_temperature;BME280_humidity;BME280_pressure;Samples;Min_cycle;Max_cycle;Signal;HPM_P1;HPM_P2
2023/08/29 00:00:54;;;;;;;1.95;1.45;;;;;;;;;;5009031;28;20037;-73
2023/08/29 00:03:39;;;;;;;1.50;1.40;;;;;;;;;;5032276;28;20041;-74
2023/08/29 00:06:25;;;;;;;3.55;1.88;;;;;;;;;;5012944;28;20037;-73
2023/08/29 00:09:10;;;;;;;2.38;1.67;;;;;;;;;;5037818;28;20045;-78
2023/08/29 00:11:56;;;;;;;2.60;1.50;;;;;;;;;;5010540;28;20033;-70
2023/08/29 00:14:41;;;;;;;2.33;1.88;;;;;;;;;;5013827;28;20140;-70
2023/08/29 00:17:27;;;;;;;2.95;1.70;;;;;;;;;;5026674;28;20040;-69
2023/08/29 00:20:12;;;;;;;6.13;1.70;;;;;;;;;;5015618;28;20037;-70
2023/08/29 00:22:57;;;;;;;2.78;2.00;;;;;;;;;;5012490;28;20034;-70
2023/08/29 00:25:42;;;;;;;3.97;1.92;;;;;;;;;;5009090;28;20079;-65
2023/08/29 00:28:27;;;;;;;3.55;2.10;;;;;;;;;;5035147;28;20032;-69
2023/08/29 00:31:13;;;;;;;2.78;1.55;;;;;;;;;;5011451;28;21238;-71
2023/08/29 00:33:58;;;;;;;5.47;2.03;;;;;;;;;;5014862;28;20128;-70
2023/08/29 00:36:43;;;;;;;3.50;2.13;;;;;;;;;;5009541;28;20037;-74
2023/08/29 00:39:28;;;;;;;4.80;2.17;;;;;;;;;;5021161;28;20432;-73
2023/08/29 00:42:14;;;;;;;8.52;2.15;;;;;;;;;;5037624;28;20037;-71
2023/08/29 00:44:59;;;;;;;2.10;1.85;;;;;;;;;;5033810;28;20108;-71
2023/08/29 00:47:44;;;;;;;2.78;1.90;;;;;;;;;;5037788;28;20462;-73
2023/08/29 00:50:30;;;;;;;2.47;1.50;;;;;;;;;;5013060;28;20091;-74
2023/08/29 00:53:15;;;;;;;2.50;1.95;;;;;;;;;;5011269;28;20028;-75
2023/08/29 00:56:01;;;;;;;1.90;1.70;;;;;;;;;;5016365;28;20033;-75
2023/08/29 00:58:47;;;;;;;3.53;1.90;;;;;;;;;;5006464;28;20025;-74
2023/08/29 01:01:32;;;;;;;3.00;1.90;;;;;;;;;;5013279;28;20037;-76
2023/08/29 01:04:19;;;;;;;3.75;1.65;;;;;;;;;;5016188;28;20029;-74
2023/08/29 01:07:06;;;;;;;2.22;1.65;;;;;;;;;;5011012;28;20041;-78
2023/08/29 01:09:51;;;;;;;2.38;1.67;;;;;;;;;;5010638;28;20114;-80
2023/08/29 01:12:45;;;;;;;2.72;2.03;;;;;;;;;;5016001;28;20025;-81
2023/08/29 01:15:32;;;;;;;1.77;1.50;;;;;;;;;;5004823;28;20535;-80
2023/08/29 01:18:18;;;;;;;3.88;2.20;;;;;;;;;;5012849;28;20032;-81
2023/08/29 01:21:16;;;;;;;2.45;1.90;;;;;;;;;;5011371;28;20041;-70
2023/08/29 01:24:07;;;;;;;2.35;2.10;;;;;;;;;;5002537;28;20052;-80
2023/08/29 01:26:53;;;;;;;5.80;2.08;;;;;;;;;;5037920;28;20053;-79
2023/08/29 01:29:42;;;;;;;4.30;2.05;;;;;;;;;;5013909;28;20043;-79
2023/08/29 01:32:28;;;;;;;7.68;3.65;;;;;;;;;;5006863;28;20076;-78
2023/08/29 01:35:15;;;;;;;4.32;2.42;;;;;;;;;;5011396;28;20041;-80
2023/08/29 01:38:00;;;;;;;5.60;2.28;;;;;;;;;;5017086;28;20028;-78
2023/08/29 01:40:45;;;;;;;3.40;1.98;;;;;;;;;;5015975;28;20053;-64
2023/08/29 01:43:30;;;;;;;2.70;1.80;;;;;;;;;;5012639;28;20039;-75
2023/08/29 01:46:16;;;;;;;1.75;1.63;;;;;;;;;;5009749;28;20033;-73
2023/08/29 01:49:02;;;;;;;3.17;2.15;;;;;;;;;;5013591;28;20091;-72
2023/08/29 01:51:47;;;;;;;2.33;1.90;;;;;;;;;;5009589;28;20120;-74
2023/08/29 01:54:32;;;;;;;3.40;2.20;;;;;;;;;;5013616;28;20065;-73
2023/08/29 01:57:19;;;;;;;3.30;1.85;;;;;;;;;;5013804;28;20095;-68
2023/08/29 02:00:04;;;;;;;2.55;2.10;;;;;;;;;;5002857;28;20256;-76
2023/08/29 02:02:49;;;;;;;2.10;1.70;;;;;;;;;;5015189;28;20068;-69
2023/08/29 02:05:35;;;;;;;2.20;1.42;;;;;;;;;;5043914;28;20448;-68
2023/08/29 02:08:20;;;;;;;5.30;1.92;;;;;;;;;;5012805;28;20036;-69
2023/08/29 02:11:05;;;;;;;4.35;2.17;;;;;;;;;;5001275;28;20041;-67
2023/08/29 02:13:50;;;;;;;5.75;2.05;;;;;;;;;;5009572;28;20529;-68
2023/08/29 02:16:36;;;;;;;3.15;1.65;;;;;;;;;;5022325;28;20197;-70
2023/08/29 02:19:26;;;;;;;3.53;1.70;;;;;;;;;;5014489;28;20122;-74
2023/08/29 02:22:12;;;;;;;4.00;2.00;;;;;;;;;;5024841;28;20108;-75
2023/08/29 02:24:57;;;;;;;1.85;1.60;;;;;;;;;;5045872;28;20025;-73
2023/08/29 02:27:42;;;;;;;3.83;1.80;;;;;;;;;;5019354;28;20028;-74
2023/08/29 02:30:27;;;;;;;3.88;2.22;;;;;;;;;;5005617;28;20679;-73
2023/08/29 02:33:12;;;;;;;3.75;1.80;;;;;;;;;;5014604;28;20048;-74
2023/08/29 02:35:58;;;;;;;3.90;1.80;;;;;;;;;;5015025;28;20045;-72
2023/08/29 02:38:46;;;;;;;6.72;2.50;;;;;;;;;;5016987;28;20033;-67
2023/08/29 02:41:31;;;;;;;3.20;1.70;;;;;;;;;;5020020;28;20033;-66
2023/08/29 02:44:16;;;;;;;3.35;1.83;;;;;;;;;;5014443;28;20033;-67
2023/08/29 02:47:01;;;;;;;5.72;1.75;;;;;;;;;;5012509;28;20491;-65
2023/08/29 02:49:46;;;;;;;1.80;1.40;;;;;;;;;;5012515;28;20041;-66
2023/08/29 02:52:32;;;;;;;2.13;1.50;;;;;;;;;;5015931;28;20036;-69
2023/08/29 02:55:17;;;;;;;3.28;2.05;;;;;;;;;;5015322;28;20452;-70
2023/08/29 02:58:02;;;;;;;3.05;1.70;;;;;;;;;;5016664;28;20080;-74
2023/08/29 03:00:57;;;;;;;2.50;2.08;;;;;;;;;;5012633;28;20056;-73
2023/08/29 03:03:42;;;;;;;2.03;1.75;;;;;;;;;;5012261;28;20045;-73
2023/08/29 03:06:27;;;;;;;5.15;2.15;;;;;;;;;;5017621;28;20064;-77
2023/08/29 03:09:13;;;;;;;2.33;1.73;;;;;;;;;;5011983;28;20029;-73
2023/08/29 03:11:58;;;;;;;3.03;1.75;;;;;;;;;;5018501;28;20380;-67
2023/08/29 03:14:43;;;;;;;4.32;1.60;;;;;;;;;;5017268;28;20033;-65
2023/08/29 03:17:28;;;;;;;3.88;2.15;;;;;;;;;;5013116;28;20257;-64
2023/08/29 03:20:15;;;;;;;3.75;1.98;;;;;;;;;;5012294;28;20074;-65
2023/08/29 03:23:00;;;;;;;4.22;1.80;;;;;;;;;;5014735;28;20037;-65
2023/08/29 03:25:46;;;;;;;4.03;1.88;;;;;;;;;;5016872;28;20545;-65
2023/08/29 03:28:31;;;;;;;7.10;2.22;;;;;;;;;;5013456;28;20036;-65
2023/08/29 03:31:17;;;;;;;4.72;1.88;;;;;;;;;;5011835;28;20033;-71
2023/08/29 03:34:02;;;;;;;3.60;1.90;;;;;;;;;;5011639;28;20060;-72
2023/08/29 03:36:47;;;;;;;3.60;1.85;;;;;;;;;;5038711;28;20206;-73
2023/08/29 03:39:32;;;;;;;3.63;1.60;;;;;;;;;;5007409;28;20083;-75
2023/08/29 03:42:19;;;;;;;2.15;1.70;;;;;;;;;;5029433;28;20761;-74
2023/08/29 03:45:04;;;;;;;2.30;1.88;;;;;;;;;;5017375;28;20065;-74
2023/08/29 03:47:50;;;;;;;6.18;2.22;;;;;;;;;;5012198;28;20115;-72
2023/08/29 03:50:35;;;;;;;2.25;2.00;;;;;;;;;;5037040;28;20468;-77
2023/08/29 03:53:21;;;;;;;2.85;1.73;;;;;;;;;;5012571;28;20078;-73
2023/08/29 03:56:08;;;;;;;4.05;2.00;;;;;;;;;;5014318;28;20459;-73
2023/08/29 03:58:53;;;;;;;2.90;2.00;;;;;;;;;;5019039;28;20171;-73
2023/08/29 04:01:38;;;;;;;2.95;2.03;;;;;;;;;;5015295;28;20021;-74
2023/08/29 04:04:23;;;;;;;3.25;1.90;;;;;;;;;;5010921;28;20029;-74
2023/08/29 04:07:09;;;;;;;4.50;2.55;;;;;;;;;;5016152;28;20032;-74
2023/08/29 04:09:54;;;;;;;2.95;2.47;;;;;;;;;;5013965;28;20048;-74
2023/08/29 04:12:39;;;;;;;5.15;2.47;;;;;;;;;;5014332;28;20071;-73
2023/08/29 04:15:24;;;;;;;3.80;2.58;;;;;;;;;;4999372;28;20037;-73
2023/08/29 04:18:09;;;;;;;5.15;2.63;;;;;;;;;;5009432;28;20541;-74
2023/08/29 04:20:54;;;;;;;4.18;2.80;;;;;;;;;;5008682;28;20133;-73
2023/08/29 04:23:40;;;;;;;3.83;2.65;;;;;;;;;;5007528;28;20084;-73
2023/08/29 04:26:25;;;;;;;2.97;2.25;;;;;;;;;;5011903;28;20292;-73
2023/08/29 04:29:10;;;;;;;12.98;3.88;;;;;;;;;;5006062;28;20483;-74
2023/08/29 04:31:55;;;;;;;4.00;2.85;;;;;;;;;;5015583;28;20364;-71
2023/08/29 04:34:41;;;;;;;4.03;2.70;;;;;;;;;;5008416;28;20037;-72
2023/08/29 04:37:26;;;;;;;6.10;3.30;;;;;;;;;;5008977;28;20436;-73
2023/08/29 04:40:11;;;;;;;5.45;3.40;;;;;;;;;;5009092;28;20033;-72
2023/08/29 04:42:56;;;;;;;4.68;3.75;;;;;;;;;;5011446;28;20045;-69
2023/08/29 04:45:43;;;;;;;7.55;3.70;;;;;;;;;;5017208;28;20043;-69
2023/08/29 04:48:28;;;;;;;5.70;4.07;;;;;;;;;;5007728;28;20036;-67
2023/08/29 04:51:14;;;;;;;12.40;4.07;;;;;;;;;;5013954;28;20049;-67
2023/08/29 04:53:59;;;;;;;7.07;3.53;;;;;;;;;;5014114;28;20519;-67
2023/08/29 04:56:44;;;;;;;7.13;3.40;;;;;;;;;;5004754;28;20052;-67
2023/08/29 04:59:29;;;;;;;7.38;3.88;;;;;;;;;;5012565;28;20082;-67
2023/08/29 05:02:15;;;;;;;3.92;3.10;;;;;;;;;;5014606;28;20040;-69
2023/08/29 05:05:00;;;;;;;6.10;3.78;;;;;;;;;;5016193;28;20036;-69
2023/08/29 05:07:46;;;;;;;7.47;3.78;;;;;;;;;;4992531;28;20148;-70
2023/08/29 05:10:31;;;;;;;7.30;4.22;;;;;;;;;;5032973;28;20056;-70
2023/08/29 05:13:16;;;;;;;7.25;3.65;;;;;;;;;;5015635;28;20039;-72
2023/08/29 05:16:03;;;;;;;7.63;4.45;;;;;;;;;;5013289;28;20037;-70
2023/08/29 05:18:48;;;;;;;7.25;3.90;;;;;;;;;;5016487;28;20033;-70
2023/08/29 05:21:33;;;;;;;8.50;4.75;;;;;;;;;;5014572;28;20029;-73
2023/08/29 05:24:20;;;;;;;7.72;4.68;;;;;;;;;;5000181;28;20057;-77
2023/08/29 05:27:05;;;;;;;5.75;3.47;;;;;;;;;;5014395;28;20480;-78
2023/08/29 05:29:50;;;;;;;8.07;5.05;;;;;;;;;;5014355;28;20560;-78
2023/08/29 05:32:38;;;;;;;5.88;4.50;;;;;;;;;;5034984;28;20469;-79
2023/08/29 05:35:23;;;;;;;8.05;5.05;;;;;;;;;;5012987;28;20060;-79
2023/08/29 05:38:09;;;;;;;9.52;5.18;;;;;;;;;;5011684;28;20388;-70
2023/08/29 05:40:55;;;;;;;8.23;4.78;;;;;;;;;;5040188;28;20083;-68
2023/08/29 05:43:41;;;;;;;7.70;5.00;;;;;;;;;;5011750;28;20118;-86
2023/08/29 05:46:26;;;;;;;9.85;5.28;;;;;;;;;;5015791;28;20059;-76
2023/08/29 05:49:11;;;;;;;9.48;5.50;;;;;;;;;;5039460;28;20152;-74
2023/08/29 05:51:56;;;;;;;6.70;5.00;;;;;;;;;;5019717;28;20022;-79
2023/08/29 05:54:42;;;;;;;11.65;5.72;;;;;;;;;;5015319;28;20036;-75
2023/08/29 05:57:28;;;;;;;8.48;4.90;;;;;;;;;;5014259;28;20120;-73
2023/08/29 06:00:14;;;;;;;11.25;5.18;;;;;;;;;;5020405;28;20041;-78
2023/08/29 06:03:01;;;;;;;10.50;5.85;;;;;;;;;;5007106;28;20029;-74
2023/08/29 06:05:49;;;;;;;6.97;4.25;;;;;;;;;;5036385;28;20084;-75
2023/08/29 06:08:35;;;;;;;7.30;5.15;;;;;;;;;;5010768;28;20033;-73
2023/08/29 06:11:20;;;;;;;9.90;5.85;;;;;;;;;;5006719;28;20067;-74
2023/08/29 06:14:05;;;;;;;6.72;5.13;;;;;;;;;;5042478;28;20034;-75
2023/08/29 06:16:50;;;;;;;8.32;5.32;;;;;;;;;;5020251;28;20060;-75
2023/08/29 06:19:36;;;;;;;10.13;5.20;;;;;;;;;;5026696;28;20076;-65
2023/08/29 06:22:21;;;;;;;9.85;5.10;;;;;;;;;;5021468;28;20112;-63
2023/08/29 06:25:06;;;;;;;6.68;4.13;;;;;;;;;;5000840;28;20164;-65
2023/08/29 06:27:52;;;;;;;8.27;4.28;;;;;;;;;;5012858;28;20410;-67
2023/08/29 06:30:37;;;;;;;7.97;5.15;;;;;;;;;;5017312;28;20037;-65
2023/08/29 06:33:22;;;;;;;9.02;4.28;;;;;;;;;;5009444;28;20029;-70
2023/08/29 06:36:07;;;;;;;6.88;4.15;;;;;;;;;;5019713;28;20037;-70
2023/08/29 06:38:53;;;;;;;8.60;4.85;;;;;;;;;;5004473;28;20164;-66
2023/08/29 06:41:38;;;;;;;7.88;4.53;;;;;;;;;;5012979;28;20029;-66
2023/08/29 06:44:23;;;;;;;8.20;5.47;;;;;;;;;;5003705;28;20400;-66
2023/08/29 06:47:09;;;;;;;11.02;5.25;;;;;;;;;;5021112;28;20025;-66
2023/08/29 06:49:55;;;;;;;6.85;4.93;;;;;;;;;;5015942;28;20033;-63
2023/08/29 06:52:40;;;;;;;7.30;4.90;;;;;;;;;;5016985;28;20029;-64
2023/08/29 06:55:25;;;;;;;8.00;4.55;;;;;;;;;;5020626;28;20068;-65
2023/08/29 06:58:10;;;;;;;8.85;5.22;;;;;;;;;;5011780;28;20381;-67
2023/08/29 07:00:56;;;;;;;8.32;5.38;;;;;;;;;;5012687;28;20044;-66
2023/08/29 07:03:41;;;;;;;9.00;4.93;;;;;;;;;;5012481;28;20075;-66
2023/08/29 07:06:26;;;;;;;7.25;4.30;;;;;;;;;;5010518;28;20037;-66
2023/08/29 07:09:11;;;;;;;6.18;4.68;;;;;;;;;;5040214;28;20033;-67
2023/08/29 07:11:57;;;;;;;8.20;4.78;;;;;;;;;;5018548;28;20033;-74
2023/08/29 07:14:42;;;;;;;10.75;5.45;;;;;;;;;;5015875;28;20041;-69
2023/08/29 07:17:27;;;;;;;7.68;4.60;;;;;;;;;;5008268;28;20041;-69
2023/08/29 07:20:13;;;;;;;10.32;5.95;;;;;;;;;;5039085;28;20144;-69
2023/08/29 07:22:58;;;;;;;12.10;5.72;;;;;;;;;;5008891;28;20112;-70
2023/08/29 07:25:44;;;;;;;7.53;5.07;;;;;;;;;;5022108;28;20033;-68
2023/08/29 07:28:30;;;;;;;9.25;5.22;;;;;;;;;;5036886;28;20033;-69
2023/08/29 07:31:15;;;;;;;9.05;5.60;;;;;;;;;;5017301;28;20083;-66
2023/08/29 07:34:00;;;;;;;7.60;5.35;;;;;;;;;;5014742;28;20044;-69
2023/08/29 07:36:45;;;;;;;9.77;5.40;;;;;;;;;;5014253;28;20499;-68
2023/08/29 07:39:31;;;;;;;9.55;6.15;;;;;;;;;;5013314;28;20504;-70
2023/08/29 07:42:16;;;;;;;8.00;5.45;;;;;;;;;;5015233;28;20041;-70
2023/08/29 07:45:02;;;;;;;7.13;5.22;;;;;;;;;;5000640;28;20028;-71
2023/08/29 07:47:48;;;;;;;8.25;5.53;;;;;;;;;;5010630;28;20045;-73
2023/08/29 07:50:33;;;;;;;7.72;5.35;;;;;;;;;;5012061;28;20400;-68
2023/08/29 07:53:18;;;;;;;8.32;5.47;;;;;;;;;;5002761;28;20153;-68
2023/08/29 07:56:04;;;;;;;6.75;4.80;;;;;;;;;;5000416;28;20068;-68
2023/08/29 07:58:49;;;;;;;10.40;5.55;;;;;;;;;;5012223;28;20036;-67
2023/08/29 08:01:34;;;;;;;7.07;4.22;;;;;;;;;;5007946;28;20479;-69
2023/08/29 08:04:19;;;;;;;8.65;5.35;;;;;;;;;;5009267;28;20337;-68
2023/08/29 08:07:05;;;;;;;7.30;5.45;;;;;;;;;;5016165;28;20431;-61
2023/08/29 08:09:50;;;;;;;6.65;5.07;;;;;;;;;;5020902;28;20040;-70
2023/08/29 08:12:37;;;;;;;7.57;5.47;;;;;;;;;;5018379;28;20169;-71
2023/08/29 08:15:22;;;;;;;10.20;5.18;;;;;;;;;;5025344;28;20081;-71
2023/08/29 08:18:08;;;;;;;7.55;5.28;;;;;;;;;;5020375;28;20041;-71
2023/08/29 08:20:53;;;;;;;7.20;4.82;;;;;;;;;;5014578;28;20088;-69
2023/08/29 08:23:38;;;;;;;7.57;4.45;;;;;;;;;;5037894;28;20471;-65
2023/08/29 08:26:24;;;;;;;9.10;5.50;;;;;;;;;;5038152;28;20044;-65
2023/08/29 08:29:09;;;;;;;7.60;4.90;;;;;;;;;;5018191;28;20052;-69
2023/08/29 08:31:54;;;;;;;10.68;5.40;;;;;;;;;;5013185;28;20021;-70
2023/08/29 08:34:40;;;;;;;7.78;5.82;;;;;;;;;;5012125;28;20038;-71
2023/08/29 08:37:25;;;;;;;5.50;4.38;;;;;;;;;;5012750;28;20436;-71
2023/08/29 08:40:10;;;;;;;7.93;4.78;;;;;;;;;;5008801;28;20117;-72
2023/08/29 08:42:56;;;;;;;7.80;5.60;;;;;;;;;;5016330;28;20059;-68
2023/08/29 08:45:42;;;;;;;7.25;5.03;;;;;;;;;;5042193;28;20044;-70
2023/08/29 08:48:28;;;;;;;8.57;5.45;;;;;;;;;;5043398;28;20051;-71
2023/08/29 08:51:15;;;;;;;8.43;4.90;;;;;;;;;;5025467;28;20045;-70
2023/08/29 08:54:00;;;;;;;7.88;5.38;;;;;;;;;;5038836;28;20017;-70
2023/08/29 08:56:46;;;;;;;6.95;4.60;;;;;;;;;;5019425;28;20043;-69
2023/08/29 08:59:32;;;;;;;10.20;5.35;;;;;;;;;;5029098;28;20056;-72
2023/08/29 09:02:17;;;;;;;8.52;5.75;;;;;;;;;;5006153;28;20032;-73
2023/08/29 09:05:12;;;;;;;8.32;6.15;;;;;;;;;;5013623;28;20128;-74
2023/08/29 09:07:59;;;;;;;7.68;6.13;;;;;;;;;;5001755;28;20037;-73
2023/08/29 09:10:44;;;;;;;8.00;5.93;;;;;;;;;;5039879;28;20024;-73
2023/08/29 09:13:30;;;;;;;8.15;5.38;;;;;;;;;;5012869;28;20132;-72
2023/08/29 09:16:16;;;;;;;8.57;6.40;;;;;;;;;;5010975;28;20064;-73
2023/08/29 09:19:01;;;;;;;9.10;5.88;;;;;;;;;;5043119;28;20036;-68
2023/08/29 09:21:47;;;;;;;7.68;6.40;;;;;;;;;;5020654;28;20029;-70
2023/08/29 09:24:33;;;;;;;8.35;5.82;;;;;;;;;;5011979;28;20084;-71
2023/08/29 09:27:19;;;;;;;7.97;5.82;;;;;;;;;;5031305;28;20115;-71
2023/08/29 09:30:14;;;;;;;7.60;5.22;;;;;;;;;;5013098;28;20101;-71
2023/08/29 09:33:06;;;;;;;9.95;6.03;;;;;;;;;;5016994;28;20048;-69
2023/08/29 09:35:51;;;;;;;9.23;5.93;;;;;;;;;;5014039;28;20581;-71
2023/08/29 09:38:36;;;;;;;7.47;4.95;;;;;;;;;;4995874;28;20036;-65
2023/08/29 09:41:22;;;;;;;7.90;5.35;;;;;;;;;;5015364;28;20554;-83
2023/08/29 09:44:13;;;;;;;7.55;5.38;;;;;;;;;;5016933;28;20033;-80
2023/08/29 09:46:58;;;;;;;10.88;5.50;;;;;;;;;;5011670;28;20033;-81
2023/08/29 09:49:46;;;;;;;7.20;4.50;;;;;;;;;;4997929;28;20033;-76
2023/08/29 09:52:31;;;;;;;6.47;4.75;;;;;;;;;;5001966;28;20037;-75
2023/08/29 09:55:18;;;;;;;9.23;5.68;;;;;;;;;;5017686;28;20038;-75
2023/08/29 09:58:04;;;;;;;9.23;5.95;;;;;;;;;;5008654;28;20477;-72
2023/08/29 10:00:51;;;;;;;7.05;5.32;;;;;;;;;;5004426;28;20029;-67
2023/08/29 10:03:36;;;;;;;6.68;5.63;;;;;;;;;;5012229;28;20103;-66
2023/08/29 10:06:22;;;;;;;7.55;5.70;;;;;;;;;;5019144;28;20036;-68
2023/08/29 10:09:08;;;;;;;8.80;5.88;;;;;;;;;;5015583;28;20044;-68
2023/08/29 10:11:54;;;;;;;7.72;5.65;;;;;;;;;;5039964;28;20041;-67
2023/08/29 10:14:41;;;;;;;9.27;7.07;;;;;;;;;;5015595;28;20037;-68
2023/08/29 10:17:27;;;;;;;8.60;7.32;;;;;;;;;;5012562;28;20049;-70
2023/08/29 10:20:13;;;;;;;10.55;7.47;;;;;;;;;;5012919;28;20029;-69
2023/08/29 10:23:00;;;;;;;10.77;7.30;;;;;;;;;;5039795;28;20033;-68
2023/08/29 10:25:45;;;;;;;8.35;6.53;;;;;;;;;;4999814;28;20045;-67
2023/08/29 10:28:31;;;;;;;14.73;7.80;;;;;;;;;;5035232;28;20065;-69
2023/08/29 10:31:18;;;;;;;8.70;6.38;;;;;;;;;;5004919;28;20515;-67
2023/08/29 10:34:03;;;;;;;10.07;6.20;;;;;;;;;;5012642;28;20353;-68
2023/08/29 10:36:49;;;;;;;10.60;6.40;;;;;;;;;;5009806;28;20420;-68
2023/08/29 10:39:34;;;;;;;8.70;6.68;;;;;;;;;;5007758;28;20036;-66
2023/08/29 10:42:20;;;;;;;8.35;6.18;;;;;;;;;;5006773;28;20113;-69
2023/08/29 10:45:05;;;;;;;8.98;6.20;;;;;;;;;;5008789;28;20033;-67
2023/08/29 10:47:52;;;;;;;7.60;5.80;;;;;;;;;;4991492;28;20124;-67
2023/08/29 10:50:37;;;;;;;7.00;5.60;;;;;;;;;;5011865;28;20117;-73
2023/08/29 10:53:22;;;;;;;8.40;6.38;;;;;;;;;;5038136;28;20148;-70
2023/08/29 10:56:08;;;;;;;9.93;6.35;;;;;;;;;;5039557;28;20124;-74
2023/08/29 10:58:54;;;;;;;9.20;6.93;;;;;;;;;;5015715;28;20034;-75
2023/08/29 11:01:40;;;;;;;8.65;6.35;;;;;;;;;;5010109;28;20545;-73
2023/08/29 11:04:25;;;;;;;8.63;5.55;;;;;;;;;;5004417;28;20031;-73
2023/08/29 11:07:20;;;;;;;8.40;5.97;;;;;;;;;;5010211;28;20048;-72
2023/08/29 11:10:12;;;;;;;7.78;5.70;;;;;;;;;;5009347;28;20144;-73
2023/08/29 11:13:06;;;;;;;8.40;6.80;;;;;;;;;;5012852;28;20105;-70
2023/08/29 11:15:51;;;;;;;9.85;6.78;;;;;;;;;;5009910;28;20504;-73
2023/08/29 11:18:36;;;;;;;10.70;7.70;;;;;;;;;;5016169;28;20484;-71
2023/08/29 11:21:23;;;;;;;10.70;6.60;;;;;;;;;;5020378;28;20046;-68
2023/08/29 11:24:10;;;;;;;9.02;7.35;;;;;;;;;;5002633;28;20041;-69
2023/08/29 11:26:57;;;;;;;10.02;7.35;;;;;;;;;;5007902;28;20030;-69
2023/08/29 11:29:42;;;;;;;10.50;7.22;;;;;;;;;;4999947;28;20033;-67
2023/08/29 11:32:28;;;;;;;11.52;8.25;;;;;;;;;;5013389;28;20752;-69
2023/08/29 11:35:13;;;;;;;9.48;7.72;;;;;;;;;;5037898;28;20037;-69
2023/08/29 11:37:59;;;;;;;9.70;8.27;;;;;;;;;;5015025;28;20049;-68
2023/08/29 11:40:44;;;;;;;8.82;7.40;;;;;;;;;;5014075;28;20040;-70
2023/08/29 11:43:30;;;;;;;12.70;7.57;;;;;;;;;;5040448;28;20037;-69
2023/08/29 11:46:16;;;;;;;8.95;6.72;;;;;;;;;;4997859;28;20456;-67
2023/08/29 11:49:10;;;;;;;7.63;6.13;;;;;;;;;;5017009;28;20049;-68
2023/08/29 11:51:55;;;;;;;9.57;6.95;;;;;;;;;;5013515;28;20022;-75
2023/08/29 11:54:45;;;;;;;10.45;6.85;;;;;;;;;;5008266;28;20064;-74
2023/08/29 11:57:30;;;;;;;12.05;7.95;;;;;;;;;;5013820;28;20052;-74
2023/08/29 12:00:16;;;;;;;9.80;7.18;;;;;;;;;;5011587;28;20045;-74
2023/08/29 12:03:01;;;;;;;8.90;7.20;;;;;;;;;;5012311;28;20029;-72
2023/08/29 12:05:47;;;;;;;8.93;7.53;;;;;;;;;;5015465;28;20484;-69
2023/08/29 12:08:53;;;;;;;9.25;7.22;;;;;;;;;;5012333;28;20480;-68
2023/08/29 12:11:41;;;;;;;11.10;8.85;;;;;;;;;;5004927;28;20033;-66
2023/08/29 12:14:27;;;;;;;9.27;7.37;;;;;;;;;;5014792;28;20112;-66
2023/08/29 12:17:12;;;;;;;9.27;8.27;;;;;;;;;;5006701;28;20268;-68
2023/08/29 12:19:57;;;;;;;9.68;8.13;;;;;;;;;;5014245;28;20049;-68
2023/08/29 12:22:50;;;;;;;10.27;7.05;;;;;;;;;;5033115;28;20029;-75
2023/08/29 12:25:35;;;;;;;10.57;8.40;;;;;;;;;;5013004;28;20037;-70
2023/08/29 12:28:20;;;;;;;9.23;8.02;;;;;;;;;;5011416;28;20030;-76
2023/08/29 12:31:06;;;;;;;10.45;8.85;;;;;;;;;;5012116;28;20037;-74
2023/08/29 12:33:52;;;;;;;10.23;9.20;;;;;;;;;;5014048;28;20037;-75
2023/08/29 12:36:37;;;;;;;15.38;8.30;;;;;;;;;;5009882;28;20477;-75
2023/08/29 12:39:22;;;;;;;9.68;7.57;;;;;;;;;;5010928;28;20049;-79
2023/08/29 12:42:07;;;;;;;9.95;7.40;;;;;;;;;;5007844;28;20073;-73
2023/08/29 12:44:53;;;;;;;11.73;8.93;;;;;;;;;;5013651;28;20093;-68
2023/08/29 12:47:38;;;;;;;11.55;9.05;;;;;;;;;;5015072;28;20036;-66
2023/08/29 12:50:23;;;;;;;10.27;8.70;;;;;;;;;;5013160;28;20029;-66
2023/08/29 12:53:09;;;;;;;10.23;8.43;;;;;;;;;;5014323;28;20627;-66
2023/08/29 12:55:54;;;;;;;11.02;8.95;;;;;;;;;;5023002;28;20041;-65
2023/08/29 12:58:39;;;;;;;11.43;8.90;;;;;;;;;;5022195;28;20034;-66
2023/08/29 13:01:27;;;;;;;12.32;8.82;;;;;;;;;;5010675;28;20534;-68
2023/08/29 13:04:13;;;;;;;10.02;7.75;;;;;;;;;;5001914;28;20029;-71
2023/08/29 13:06:59;;;;;;;9.70;7.32;;;;;;;;;;5011591;28;20034;-71
2023/08/29 13:09:48;;;;;;;10.68;7.95;;;;;;;;;;5008265;28;20041;-72
2023/08/29 13:12:34;;;;;;;11.20;7.55;;;;;;;;;;5031886;28;20037;-70
2023/08/29 13:15:19;;;;;;;7.70;5.75;;;;;;;;;;5017632;28;20034;-73
2023/08/29 13:18:05;;;;;;;9.65;6.20;;;;;;;;;;5040426;28;20040;-67
2023/08/29 13:20:50;;;;;;;7.20;5.82;;;;;;;;;;5015414;28;20033;-73
2023/08/29 13:23:36;;;;;;;9.20;6.70;;;;;;;;;;5009798;28;20115;-73
2023/08/29 13:26:21;;;;;;;7.63;6.10;;;;;;;;;;5034503;28;20068;-73
2023/08/29 13:29:06;;;;;;;10.57;6.68;;;;;;;;;;5019380;28;20103;-74
2023/08/29 13:31:52;;;;;;;7.32;5.10;;;;;;;;;;5018859;28;20695;-77
2023/08/29 13:34:37;;;;;;;8.63;6.60;;;;;;;;;;5010923;28;20430;-74
2023/08/29 13:37:22;;;;;;;6.88;5.60;;;;;;;;;;5011929;28;20084;-73
2023/08/29 13:40:08;;;;;;;7.93;5.63;;;;;;;;;;5016097;28;20068;-72
2023/08/29 13:42:53;;;;;;;6.68;5.45;;;;;;;;;;5013645;28;20033;-71
2023/08/29 13:45:38;;;;;;;5.35;4.50;;;;;;;;;;5008913;28;20032;-71
2023/08/29 13:48:23;;;;;;;7.70;5.10;;;;;;;;;;5015795;28;20052;-74
2023/08/29 13:51:09;;;;;;;6.95;4.70;;;;;;;;;;5037080;28;20504;-73
2023/08/29 13:53:54;;;;;;;8.25;5.30;;;;;;;;;;5043730;28;20052;-73
2023/08/29 13:56:40;;;;;;;6.13;5.20;;;;;;;;;;5014621;28;20044;-69
2023/08/29 13:59:25;;;;;;;5.20;4.35;;;;;;;;;;5016722;28;20426;-72
2023/08/29 14:02:12;;;;;;;8.00;5.05;;;;;;;;;;5034500;28;20581;-72
2023/08/29 14:04:58;;;;;;;7.93;4.82;;;;;;;;;;5038151;28;20116;-72
2023/08/29 14:07:44;;;;;;;5.28;4.28;;;;;;;;;;5037354;28;20454;-72
2023/08/29 14:10:29;;;;;;;7.93;5.10;;;;;;;;;;5037504;28;20024;-70
2023/08/29 14:13:14;;;;;;;6.65;5.18;;;;;;;;;;5031869;28;20347;-74
2023/08/29 14:16:02;;;;;;;7.28;5.82;;;;;;;;;;5033655;28;20427;-72
2023/08/29 14:18:48;;;;;;;8.75;6.60;;;;;;;;;;5033441;28;20686;-70
2023/08/29 14:21:33;;;;;;;7.07;5.47;;;;;;;;;;5033391;28;20033;-70
2023/08/29 14:24:18;;;;;;;8.38;5.35;;;;;;;;;;5034082;28;20487;-70
2023/08/29 14:27:04;;;;;;;7.68;5.00;;;;;;;;;;5030623;28;20029;-71
2023/08/29 14:29:49;;;;;;;9.65;4.70;;;;;;;;;;5038470;28;20572;-72
2023/08/29 14:32:34;;;;;;;4.47;4.07;;;;;;;;;;5030626;28;20055;-74
2023/08/29 14:35:21;;;;;;;6.30;4.90;;;;;;;;;;5031773;28;20064;-77
2023/08/29 14:38:06;;;;;;;8.73;4.47;;;;;;;;;;5029305;28;20120;-76
2023/08/29 14:40:51;;;;;;;6.10;5.15;;;;;;;;;;5033941;28;20037;-77
2023/08/29 14:43:37;;;;;;;10.20;5.10;;;;;;;;;;5026134;28;20052;-77
2023/08/29 14:46:22;;;;;;;5.90;4.40;;;;;;;;;;5018250;28;20040;-74
2023/08/29 14:49:07;;;;;;;5.68;3.78;;;;;;;;;;5025514;28;20064;-71
2023/08/29 14:51:54;;;;;;;5.88;3.88;;;;;;;;;;5028154;28;20062;-74
2023/08/29 14:54:39;;;;;;;4.13;2.40;;;;;;;;;;5025642;28;20059;-69
2023/08/29 14:57:24;;;;;;;3.47;2.20;;;;;;;;;;5018813;28;20075;-68
2023/08/29 15:00:11;;;;;;;4.40;2.38;;;;;;;;;;5029127;28;20439;-69
2023/08/29 15:02:56;;;;;;;3.03;1.92;;;;;;;;;;5026763;28;20036;-66
2023/08/29 15:05:41;;;;;;;6.53;3.10;;;;;;;;;;5024172;28;20036;-71
2023/08/29 15:08:27;;;;;;;2.40;2.15;;;;;;;;;;5030029;28;20345;-72
2023/08/29 15:11:12;;;;;;;2.65;1.77;;;;;;;;;;5031816;28;20060;-72
2023/08/29 15:13:58;;;;;;;3.10;1.90;;;;;;;;;;5027584;28;20033;-72
2023/08/29 15:16:43;;;;;;;4.97;2.53;;;;;;;;;;5031500;28;20032;-73
2023/08/29 15:19:29;;;;;;;4.45;2.15;;;;;;;;;;5035102;28;20060;-70
2023/08/29 15:22:15;;;;;;;3.38;2.53;;;;;;;;;;5031196;28;20032;-71
2023/08/29 15:25:00;;;;;;;2.55;2.10;;;;;;;;;;5036469;28;20545;-71
2023/08/29 15:27:46;;;;;;;2.67;1.88;;;;;;;;;;5020475;28;20370;-71
2023/08/29 15:30:31;;;;;;;3.45;2.00;;;;;;;;;;5018499;28;20762;-77
2023/08/29 15:33:16;;;;;;;3.88;1.90;;;;;;;;;;5018917;28;20037;-75
2023/08/29 15:36:01;;;;;;;3.00;2.03;;;;;;;;;;5030101;28;20044;-76
2023/08/29 15:38:47;;;;;;;3.42;2.47;;;;;;;;;;5029917;28;20051;-76
2023/08/29 15:41:32;;;;;;;3.28;2.00;;;;;;;;;;5033348;28;20120;-75
2023/08/29 15:44:17;;;;;;;3.67;2.20;;;;;;;;;;5023781;28;20528;-75
2023/08/29 15:47:04;;;;;;;3.78;2.10;;;;;;;;;;5029210;28;20187;-70
2023/08/29 15:49:49;;;;;;;4.63;2.40;;;;;;;;;;5029348;28;20617;-72
2023/08/29 15:52:34;;;;;;;2.80;2.33;;;;;;;;;;5028667;28;20234;-71
2023/08/29 15:55:20;;;;;;;4.75;2.13;;;;;;;;;;5033825;28;20112;-74
2023/08/29 15:58:06;;;;;;;2.08;1.80;;;;;;;;;;5032107;28;20127;-69
2023/08/29 16:00:51;;;;;;;3.97;1.80;;;;;;;;;;5047266;28;20029;-70
2023/08/29 16:03:37;;;;;;;4.13;1.90;;;;;;;;;;5029076;28;20430;-69
2023/08/29 16:06:22;;;;;;;3.95;1.80;;;;;;;;;;5018177;28;20040;-68
2023/08/29 16:09:07;;;;;;;2.53;1.58;;;;;;;;;;5030892;28;20250;-70
2023/08/29 16:11:52;;;;;;;4.28;1.92;;;;;;;;;;5031911;28;20063;-70
2023/08/29 16:14:38;;;;;;;2.17;1.90;;;;;;;;;;5029469;28;20124;-72
2023/08/29 16:17:24;;;;;;;4.95;2.10;;;;;;;;;;5032537;28;20140;-71
2023/08/29 16:20:09;;;;;;;4.63;2.10;;;;;;;;;;5036098;28;20067;-70
2023/08/29 16:22:54;;;;;;;3.00;1.70;;;;;;;;;;5033527;28;20032;-67
2023/08/29 16:25:40;;;;;;;9.10;2.85;;;;;;;;;;5030595;28;20464;-65
2023/08/29 16:28:25;;;;;;;4.65;3.03;;;;;;;;;;5034318;28;20036;-67
2023/08/29 16:31:11;;;;;;;4.40;1.95;;;;;;;;;;5029921;28;20029;-66